createdAt,value
2019-02-28T00:00:13.784Z,65.50
2019-02-28T00:00:52.782Z,65.69
2019-02-28T00:01:52.751Z,65.50
2019-02-28T00:02:53.858Z,65.88
2019-02-28T00:03:52.726Z,65.88
2019-02-28T00:04:52.693Z,65.88
2019-02-28T00:06:13.678Z,66.06
2019-02-28T00:06:52.667Z,65.97
2019-02-28T00:07:52.691Z,66.44
2019-02-28T00:08:53.687Z,66.16
2019-02-28T00:09:52.613Z,66.16
2019-02-28T00:10:52.621Z,66.35
2019-02-28T00:12:14.414Z,66.35
2019-02-28T00:12:52.560Z,66.35
2019-02-28T00:13:55.936Z,65.97
2019-02-28T00:14:52.494Z,66.06
2019-02-28T00:15:52.480Z,66.35
2019-02-28T00:16:52.473Z,66.63
2019-02-28T00:18:15.249Z,66.63
2019-02-28T00:18:52.421Z,66.63
2019-02-28T00:19:52.395Z,66.16
2019-02-28T00:20:52.379Z,66.06
2019-02-28T00:21:52.363Z,66.00
2019-02-28T00:22:52.349Z,65.72
2019-02-28T00:24:13.346Z,65.81
2019-02-28T00:24:52.319Z,65.09
2019-02-28T00:25:52.289Z,64.61
2019-02-28T00:26:52.262Z,64.52
2019-02-28T00:27:52.809Z,63.95
2019-02-28T00:28:52.238Z,63.60
2019-02-28T00:30:13.217Z,63.32
2019-02-28T00:30:52.189Z,62.75
2019-02-28T00:31:52.194Z,62.28
2019-02-28T00:32:52.153Z,62.59
2019-02-28T00:33:52.148Z,62.21
2019-02-28T00:34:52.130Z,62.12
2019-02-28T00:36:13.115Z,61.36
2019-02-28T00:36:53.445Z,61.58
2019-02-28T00:37:52.069Z,60.63
2019-02-28T00:38:52.045Z,60.92
2019-02-28T00:39:52.029Z,60.63
2019-02-28T00:40:52.003Z,60.73
2019-02-28T00:42:17.428Z,60.28
2019-02-28T00:42:51.968Z,60.10
2019-02-28T00:43:51.959Z,59.62
2019-02-28T00:44:51.939Z,59.62
2019-02-28T00:45:51.927Z,58.76
2019-02-28T00:46:51.895Z,59.43
2019-02-28T00:48:12.887Z,59.52
2019-02-28T00:48:52.956Z,59.05
2019-02-28T00:49:51.856Z,59.05
2019-02-28T00:50:51.827Z,58.48
2019-02-28T00:51:51.809Z,59.14
2019-02-28T00:52:51.794Z,58.95
2019-02-28T00:54:12.776Z,58.76
2019-02-28T00:54:51.768Z,58.58
2019-02-28T00:55:51.735Z,58.95
2019-02-28T00:56:52.593Z,58.58
2019-02-28T00:57:51.707Z,58.76
2019-02-28T00:58:51.689Z,58.20
2019-02-28T01:00:12.674Z,58.20
2019-02-28T01:00:51.667Z,58.00
2019-02-28T01:01:51.648Z,58.00
2019-02-28T01:02:53.263Z,57.72
2019-02-28T01:03:51.594Z,57.94
2019-02-28T01:04:51.621Z,57.28
2019-02-28T01:06:12.571Z,57.46
2019-02-28T01:06:51.568Z,57.75
2019-02-28T01:07:51.543Z,57.28
2019-02-28T01:08:53.009Z,56.99
2019-02-28T01:09:51.506Z,56.80
2019-02-28T01:10:51.479Z,56.80
2019-02-28T01:12:18.691Z,57.09
2019-02-28T01:12:54.381Z,57.02
2019-02-28T01:13:51.425Z,56.54
2019-02-28T01:14:51.421Z,56.26
2019-02-28T01:15:51.397Z,55.97
2019-02-28T01:16:53.083Z,56.16
2019-02-28T01:18:12.359Z,55.88
2019-02-28T01:18:51.341Z,56.07
2019-02-28T01:19:51.369Z,56.26
2019-02-28T01:20:51.312Z,56.35
2019-02-28T01:21:51.290Z,56.16
2019-02-28T01:22:51.277Z,56.26
2019-02-28T01:24:12.259Z,55.69
2019-02-28T01:24:51.988Z,55.69
2019-02-28T01:25:51.215Z,55.88
2019-02-28T01:26:51.200Z,55.59
2019-02-28T01:27:52.449Z,55.88
2019-02-28T01:28:51.170Z,55.78
2019-02-28T01:30:12.150Z,55.59
2019-02-28T01:30:51.150Z,56.16
2019-02-28T01:31:51.118Z,55.97
2019-02-28T01:32:51.182Z,56.07
2019-02-28T01:33:51.078Z,56.26
2019-02-28T01:34:51.077Z,55.97
2019-02-28T01:36:12.291Z,55.88
2019-02-28T01:36:51.037Z,56.26
2019-02-28T01:37:52.395Z,56.26
2019-02-28T01:38:50.991Z,56.13
2019-02-28T01:39:50.978Z,56.04
2019-02-28T01:40:50.974Z,55.85
2019-02-28T01:42:11.951Z,56.32
2019-02-28T01:42:53.950Z,56.32
2019-02-28T01:43:50.914Z,56.13
2019-02-28T01:44:50.922Z,55.94
2019-02-28T01:45:50.884Z,56.23
2019-02-28T01:46:50.857Z,56.80
2019-02-28T01:48:11.848Z,56.51
2019-02-28T01:48:50.818Z,56.51
2019-02-28T01:49:51.532Z,56.51
2019-02-28T01:50:50.791Z,56.42
2019-02-28T01:51:50.798Z,56.42
2019-02-28T01:52:50.760Z,56.61
2019-02-28T01:54:11.740Z,56.68
2019-02-28T01:54:50.736Z,56.77
2019-02-28T01:55:50.702Z,56.96
2019-02-28T01:56:50.679Z,57.06
2019-02-28T01:57:50.672Z,56.77
2019-02-28T01:58:51.142Z,56.58
2019-02-28T02:00:11.634Z,57.06
2019-02-28T02:00:50.627Z,57.06
2019-02-28T02:01:50.601Z,57.15
2019-02-28T02:02:50.584Z,57.72
2019-02-28T02:03:50.567Z,57.59
2019-02-28T02:04:50.550Z,57.40
2019-02-28T02:06:11.548Z,57.88
2019-02-28T02:06:50.511Z,58.17
2019-02-28T02:07:50.483Z,58.17
2019-02-28T02:08:50.481Z,58.17
2019-02-28T02:09:50.473Z,58.17
2019-02-28T02:10:54.971Z,58.17
2019-02-28T02:12:11.436Z,58.17
2019-02-28T02:12:50.406Z,58.54
2019-02-28T02:13:50.388Z,58.54
2019-02-28T02:14:50.376Z,58.54
2019-02-28T02:15:51.408Z,59.11
2019-02-28T02:16:50.333Z,58.64
2019-02-28T02:18:11.323Z,58.54
2019-02-28T02:18:50.291Z,58.70
2019-02-28T02:19:52.194Z,58.80
2019-02-28T02:20:50.273Z,58.70
2019-02-28T02:21:50.238Z,59.18
2019-02-28T02:22:50.219Z,59.37
2019-02-28T02:24:11.215Z,59.08
2019-02-28T02:24:50.182Z,59.18
2019-02-28T02:25:50.164Z,59.08
2019-02-28T02:26:50.168Z,59.27
2019-02-28T02:27:52.954Z,59.46
2019-02-28T02:28:50.122Z,59.66
2019-02-28T02:30:15.050Z,59.66
2019-02-28T02:30:50.991Z,59.66
2019-02-28T02:31:50.069Z,59.66
2019-02-28T02:32:50.043Z,59.94
2019-02-28T02:33:52.513Z,59.72
2019-02-28T02:34:50.014Z,59.91
2019-02-28T02:36:10.982Z,59.81
2019-02-28T02:36:54.199Z,60.67
2019-02-28T02:37:49.953Z,60.57
2019-02-28T02:38:49.933Z,60.19
2019-02-28T02:39:50.448Z,60.67
2019-02-28T02:40:49.892Z,60.67
2019-02-28T02:42:11.684Z,60.95
2019-02-28T02:42:50.206Z,60.86
2019-02-28T02:43:49.872Z,60.86
2019-02-28T02:44:49.830Z,60.70
2019-02-28T02:45:49.801Z,60.31
2019-02-28T02:46:55.538Z,60.50
2019-02-28T02:48:10.765Z,60.03
2019-02-28T02:48:49.750Z,59.84
2019-02-28T02:49:55.980Z,59.78
2019-02-28T02:50:49.713Z,59.40
2019-02-28T02:51:50.780Z,59.59
2019-02-28T02:52:49.687Z,59.02
2019-02-28T02:54:17.925Z,59.02
2019-02-28T02:54:52.066Z,59.14
2019-02-28T02:55:49.624Z,59.14
2019-02-28T02:56:49.619Z,58.86
2019-02-28T02:57:51.677Z,58.48
2019-02-28T02:58:49.570Z,58.41
2019-02-28T03:00:13.667Z,57.94
2019-02-28T03:00:51.381Z,58.22
2019-02-28T03:01:49.514Z,58.13
2019-02-28T03:02:49.510Z,58.03
2019-02-28T03:03:49.485Z,58.03
2019-02-28T03:04:49.490Z,57.46
2019-02-28T03:06:13.928Z,57.56
2019-02-28T03:06:49.439Z,57.50
2019-02-28T03:07:49.419Z,57.21
2019-02-28T03:08:49.421Z,57.30
2019-02-28T03:09:49.383Z,57.21
2019-02-28T03:10:51.861Z,57.59
2019-02-28T03:12:10.345Z,56.92
2019-02-28T03:12:49.320Z,56.92
2019-02-28T03:13:49.305Z,57.02
2019-02-28T03:14:50.019Z,56.92
2019-02-28T03:15:49.267Z,56.83
2019-02-28T03:16:49.253Z,57.11
2019-02-28T03:18:10.238Z,56.83
2019-02-28T03:18:49.214Z,56.54
2019-02-28T03:19:49.208Z,56.54
2019-02-28T03:20:49.182Z,56.63
2019-02-28T03:21:52.601Z,56.73
2019-02-28T03:22:49.144Z,56.54
2019-02-28T03:24:14.853Z,56.63
2019-02-28T03:24:51.002Z,56.45
2019-02-28T03:25:49.101Z,56.63
2019-02-28T03:26:49.078Z,56.67
2019-02-28T03:27:55.110Z,56.76
2019-02-28T03:28:49.038Z,56.92
2019-02-28T03:30:10.109Z,56.35
2019-02-28T03:30:49.014Z,56.35
2019-02-28T03:31:56.812Z,56.73
2019-02-28T03:32:48.975Z,56.73
2019-02-28T03:33:48.955Z,56.73
2019-02-28T03:34:56.227Z,56.63
2019-02-28T03:36:09.923Z,56.73
2019-02-28T03:36:55.014Z,56.63
2019-02-28T03:37:48.894Z,56.73
2019-02-28T03:38:50.069Z,56.26
2019-02-28T03:39:48.858Z,55.97
2019-02-28T03:40:48.829Z,55.97
2019-02-28T03:42:09.822Z,55.97
2019-02-28T03:42:48.810Z,56.16
2019-02-28T03:43:48.795Z,56.07
2019-02-28T03:44:48.763Z,56.26
2019-02-28T03:45:48.745Z,56.83
2019-02-28T03:46:48.737Z,56.73
2019-02-28T03:48:09.711Z,56.73
2019-02-28T03:48:48.700Z,56.73
2019-02-28T03:49:50.087Z,56.35
2019-02-28T03:50:48.666Z,56.54
2019-02-28T03:51:48.659Z,56.54
2019-02-28T03:52:48.639Z,56.63
2019-02-28T03:54:09.634Z,56.63
2019-02-28T03:54:48.648Z,56.35
2019-02-28T03:55:48.595Z,56.45
2019-02-28T03:56:52.904Z,56.63
2019-02-28T03:57:48.552Z,56.16
2019-02-28T03:58:48.529Z,56.45
2019-02-28T04:00:09.548Z,56.73
2019-02-28T04:00:48.510Z,56.73
2019-02-28T04:01:48.480Z,56.35
2019-02-28T04:02:48.464Z,56.26
2019-02-28T04:03:48.434Z,55.97
2019-02-28T04:04:50.214Z,55.97
2019-02-28T04:06:09.427Z,56.16
2019-02-28T04:06:48.406Z,56.07
2019-02-28T04:07:52.481Z,56.16
2019-02-28T04:08:48.407Z,56.38
2019-02-28T04:09:48.373Z,56.16
2019-02-28T04:10:48.351Z,56.00
2019-02-28T04:12:09.356Z,56.10
2019-02-28T04:12:48.302Z,55.62
2019-02-28T04:13:48.289Z,55.71
2019-02-28T04:14:48.264Z,55.71
2019-02-28T04:16:07.812Z,55.62
2019-02-28T04:16:52.697Z,55.71
2019-02-28T04:18:09.214Z,55.52
2019-02-28T04:18:48.198Z,55.15
2019-02-28T04:19:48.175Z,55.33
2019-02-28T04:20:48.162Z,55.24
2019-02-28T04:21:48.167Z,55.33
2019-02-28T04:22:48.132Z,55.62
2019-02-28T04:25:07.724Z,55.43
2019-02-28T04:26:07.574Z,55.52
2019-02-28T04:27:07.907Z,55.05
2019-02-28T04:28:07.487Z,55.15
2019-02-28T04:29:07.451Z,55.05
2019-02-28T04:30:08.437Z,55.15
2019-02-28T04:31:07.384Z,55.43
2019-02-28T04:32:07.358Z,55.33
2019-02-28T04:33:07.342Z,55.24
2019-02-28T04:34:12.996Z,55.43
2019-02-28T04:35:07.311Z,55.43
2019-02-28T04:36:07.307Z,55.24
2019-02-28T04:37:08.583Z,55.24
2019-02-28T04:38:07.248Z,55.52
2019-02-28T04:39:07.232Z,55.33
2019-02-28T04:40:07.212Z,55.43
2019-02-28T04:41:07.191Z,55.33
2019-02-28T04:42:07.194Z,55.43
2019-02-28T04:43:09.824Z,55.15
2019-02-28T04:44:07.169Z,55.43
2019-02-28T04:45:07.137Z,55.43
2019-02-28T04:46:07.734Z,55.52
2019-02-28T04:47:07.659Z,55.52
2019-02-28T04:48:07.082Z,55.52
2019-02-28T04:49:07.077Z,55.33
2019-02-28T04:50:07.039Z,55.43
2019-02-28T04:51:07.026Z,55.62
2019-02-28T04:52:07.029Z,55.62
2019-02-28T04:53:07.002Z,55.71
2019-02-28T04:54:06.974Z,55.71
2019-02-28T04:55:06.958Z,55.81
2019-02-28T04:56:11.059Z,55.71
2019-02-28T04:57:06.925Z,55.81
2019-02-28T04:58:06.978Z,55.62
2019-02-28T04:59:06.969Z,55.69
2019-02-28T05:00:06.883Z,56.07
2019-02-28T05:01:09.129Z,56.07
2019-02-28T05:02:06.841Z,55.88
2019-02-28T05:03:06.819Z,56.07
2019-02-28T05:04:06.799Z,56.16
2019-02-28T05:05:12.094Z,56.35
2019-02-28T05:06:06.771Z,56.26
2019-02-28T05:07:06.755Z,55.97
2019-02-28T05:08:06.744Z,56.16
2019-02-28T05:09:06.715Z,56.16
2019-02-28T05:10:06.690Z,56.07
2019-02-28T05:11:06.695Z,56.54
2019-02-28T05:12:06.661Z,56.83
2019-02-28T05:13:06.646Z,56.73
2019-02-28T05:14:06.634Z,56.63
2019-02-28T05:15:06.605Z,56.54
2019-02-28T05:16:09.322Z,56.54
2019-02-28T05:17:06.584Z,56.73
2019-02-28T05:18:06.549Z,57.02
2019-02-28T05:19:06.545Z,56.73
2019-02-28T05:20:07.281Z,57.30
2019-02-28T05:21:06.505Z,56.73
2019-02-28T05:22:06.487Z,56.89
2019-02-28T05:23:06.489Z,56.89
2019-02-28T05:24:07.739Z,57.18
2019-02-28T05:25:06.449Z,57.09
2019-02-28T05:26:06.417Z,57.37
2019-02-28T05:27:06.392Z,57.28
2019-02-28T05:28:07.462Z,57.37
2019-02-28T05:29:06.365Z,57.84
2019-02-28T05:30:06.347Z,57.56
2019-02-28T05:31:06.334Z,57.56
2019-02-28T05:32:06.311Z,57.56
2019-02-28T05:33:07.387Z,57.84
2019-02-28T05:34:06.288Z,57.65
2019-02-28T05:35:06.257Z,57.56
2019-02-28T05:36:06.256Z,58.22
2019-02-28T05:37:09.502Z,58.22
2019-02-28T05:38:06.212Z,57.94
2019-02-28T05:39:06.187Z,58.13
2019-02-28T05:40:06.961Z,58.41
2019-02-28T05:41:06.148Z,58.22
2019-02-28T05:42:06.144Z,58.13
2019-02-28T05:43:06.116Z,58.61
2019-02-28T05:44:07.190Z,58.41
2019-02-28T05:45:06.090Z,58.41
2019-02-28T05:46:06.066Z,58.51
2019-02-28T05:47:06.041Z,58.51
2019-02-28T05:48:06.042Z,58.80
2019-02-28T05:49:08.720Z,58.70
2019-02-28T05:50:05.994Z,59.08
2019-02-28T05:51:05.983Z,58.95
2019-02-28T05:52:05.953Z,58.80
2019-02-28T05:53:06.303Z,58.76
2019-02-28T05:54:05.925Z,58.58
2019-02-28T05:55:05.910Z,58.76
2019-02-28T05:56:05.891Z,58.86
2019-02-28T05:57:08.258Z,59.33
2019-02-28T05:58:05.861Z,58.67
2019-02-28T05:59:05.854Z,58.39
2019-02-28T06:00:05.827Z,58.98
2019-02-28T06:01:08.784Z,59.05
2019-02-28T06:02:05.784Z,59.14
2019-02-28T06:03:05.761Z,58.95
2019-02-28T06:04:05.746Z,59.05
2019-02-28T06:05:08.369Z,59.05
2019-02-28T06:06:07.934Z,58.67
2019-02-28T06:07:05.688Z,59.14
2019-02-28T06:08:05.671Z,59.24
2019-02-28T06:09:05.660Z,59.52
2019-02-28T06:10:05.644Z,59.52
2019-02-28T06:11:05.625Z,59.71
2019-02-28T06:12:06.606Z,59.71
2019-02-28T06:13:05.589Z,59.71
2019-02-28T06:14:05.567Z,59.52
2019-02-28T06:15:05.577Z,60.10
2019-02-28T06:16:11.188Z,60.10
2019-02-28T06:17:05.511Z,60.00
2019-02-28T06:18:05.501Z,60.00
2019-02-28T06:19:08.312Z,60.10
2019-02-28T06:20:05.481Z,59.81
2019-02-28T06:21:05.447Z,59.81
2019-02-28T06:22:05.422Z,60.38
2019-02-28T06:23:06.347Z,60.19
2019-02-28T06:24:05.390Z,60.38
2019-02-28T06:25:05.376Z,60.10
2019-02-28T06:26:05.372Z,60.47
2019-02-28T06:27:06.644Z,60.38
2019-02-28T06:28:05.322Z,60.38
2019-02-28T06:29:05.907Z,60.57
2019-02-28T06:30:08.075Z,60.38
2019-02-28T06:31:05.274Z,60.28
2019-02-28T06:32:05.249Z,60.47
2019-02-28T06:33:05.235Z,60.47
2019-02-28T06:34:05.590Z,60.31
2019-02-28T06:35:05.210Z,60.60
2019-02-28T06:36:05.176Z,60.31
2019-02-28T06:37:05.154Z,60.69
2019-02-28T06:38:06.759Z,60.69
2019-02-28T06:39:05.147Z,60.88
2019-02-28T06:40:05.109Z,60.79
2019-02-28T06:41:07.690Z,60.50
2019-02-28T06:42:05.070Z,61.07
2019-02-28T06:43:05.049Z,60.98
2019-02-28T06:44:05.033Z,61.36
2019-02-28T06:45:05.018Z,61.17
2019-02-28T06:46:05.005Z,61.07
2019-02-28T06:47:04.984Z,60.98
2019-02-28T06:48:04.963Z,61.07
2019-02-28T06:49:07.119Z,61.07
2019-02-28T06:50:04.932Z,61.26
2019-02-28T06:51:04.942Z,61.17
2019-02-28T06:52:04.905Z,61.07
2019-02-28T06:53:04.899Z,61.07
2019-02-28T06:54:07.899Z,61.20
2019-02-28T06:55:04.879Z,61.26
2019-02-28T06:56:04.822Z,60.91
2019-02-28T06:57:04.801Z,61.10
2019-02-28T06:58:04.791Z,60.91
2019-02-28T06:59:05.105Z,61.10
2019-02-28T07:00:04.749Z,61.01
2019-02-28T07:01:04.738Z,60.82
2019-02-28T07:02:04.712Z,60.82
2019-02-28T07:03:04.709Z,61.10
2019-02-28T07:04:04.704Z,61.10
2019-02-28T07:05:04.665Z,61.48
2019-02-28T07:06:04.650Z,61.29
2019-02-28T07:07:07.432Z,61.58
2019-02-28T07:08:04.632Z,61.58
2019-02-28T07:09:04.592Z,61.01
2019-02-28T07:10:06.193Z,61.10
2019-02-28T07:11:04.555Z,61.29
2019-02-28T07:12:04.535Z,61.20
2019-02-28T07:13:05.576Z,61.20
2019-02-28T07:14:04.503Z,61.29
2019-02-28T07:15:04.488Z,61.20
2019-02-28T07:16:04.474Z,61.01
2019-02-28T07:17:07.545Z,60.91
2019-02-28T07:18:04.437Z,60.91
2019-02-28T07:19:04.426Z,61.20
2019-02-28T07:20:04.404Z,61.01
2019-02-28T07:21:04.391Z,61.01
2019-02-28T07:22:04.368Z,61.20
2019-02-28T07:23:04.347Z,61.10
2019-02-28T07:24:04.331Z,61.10
2019-02-28T07:25:04.318Z,61.58
2019-02-28T07:26:04.295Z,61.10
2019-02-28T07:27:04.337Z,61.13
2019-02-28T07:28:04.261Z,61.04
2019-02-28T07:29:04.248Z,60.85
2019-02-28T07:30:04.231Z,60.85
2019-02-28T07:31:04.211Z,60.75
2019-02-28T07:32:04.187Z,60.28
2019-02-28T07:33:09.532Z,60.66
2019-02-28T07:34:04.159Z,60.75
2019-02-28T07:35:04.159Z,60.47
2019-02-28T07:36:05.600Z,60.28
2019-02-28T07:37:04.103Z,60.66
2019-02-28T07:38:04.127Z,60.31
2019-02-28T07:39:04.497Z,60.31
2019-02-28T07:40:04.066Z,59.83
2019-02-28T07:41:04.058Z,60.21
2019-02-28T07:42:04.041Z,60.02
2019-02-28T07:43:04.006Z,60.12
2019-02-28T07:44:03.990Z,60.02
2019-02-28T07:45:03.986Z,60.21
2019-02-28T07:46:04.456Z,59.83
2019-02-28T07:47:03.951Z,59.64
2019-02-28T07:48:03.930Z,59.86
2019-02-28T07:49:03.918Z,59.77
2019-02-28T07:50:03.891Z,59.48
2019-02-28T07:51:03.875Z,59.39
2019-02-28T07:52:03.864Z,59.20
2019-02-28T07:53:05.549Z,59.29
2019-02-28T07:54:03.817Z,59.29
2019-02-28T07:55:03.819Z,59.20
2019-02-28T07:56:07.080Z,59.01
2019-02-28T07:57:03.779Z,58.91
2019-02-28T07:58:03.760Z,59.58
2019-02-28T07:59:05.294Z,58.91
2019-02-28T08:00:03.752Z,58.91
2019-02-28T08:01:03.712Z,58.91
2019-02-28T08:02:04.072Z,59.13
2019-02-28T08:03:03.680Z,59.03
2019-02-28T08:04:03.672Z,59.03
2019-02-28T08:05:03.645Z,59.51
2019-02-28T08:06:04.855Z,59.13
2019-02-28T08:07:03.617Z,59.03
2019-02-28T08:08:03.609Z,59.03
2019-02-28T08:09:04.817Z,59.03
2019-02-28T08:10:03.579Z,58.84
2019-02-28T08:11:03.551Z,58.94
2019-02-28T08:12:03.545Z,58.84
2019-02-28T08:13:04.063Z,59.16
2019-02-28T08:14:03.497Z,58.97
2019-02-28T08:15:03.502Z,59.06
2019-02-28T08:16:03.471Z,58.97
2019-02-28T08:17:05.503Z,58.59
2019-02-28T08:18:05.684Z,58.40
2019-02-28T08:19:03.443Z,58.30
2019-02-28T08:20:03.430Z,58.59
2019-02-28T08:21:05.370Z,58.43
2019-02-28T08:22:03.389Z,58.04
2019-02-28T08:23:03.369Z,57.57
2019-02-28T08:24:05.343Z,57.76
2019-02-28T08:25:03.337Z,57.86
2019-02-28T08:26:03.315Z,57.57
2019-02-28T08:27:03.309Z,57.19
2019-02-28T08:28:03.294Z,57.57
2019-02-28T08:29:03.280Z,57.09
2019-02-28T08:30:03.278Z,56.90
2019-02-28T08:31:03.235Z,57.12
2019-02-28T08:32:06.703Z,57.60
2019-02-28T08:33:03.243Z,57.22
2019-02-28T08:34:03.200Z,57.12
2019-02-28T08:35:03.188Z,57.12
2019-02-28T08:36:05.235Z,57.12
2019-02-28T08:37:03.180Z,57.12
2019-02-28T08:38:03.142Z,57.12
2019-02-28T08:39:03.125Z,57.12
2019-02-28T08:40:03.108Z,57.03
2019-02-28T08:41:03.095Z,57.41
2019-02-28T08:42:04.690Z,57.22
2019-02-28T08:43:03.072Z,56.77
2019-02-28T08:44:03.056Z,56.29
2019-02-28T08:45:03.039Z,56.48
2019-02-28T08:46:06.345Z,56.48
2019-02-28T08:47:03.007Z,56.20
2019-02-28T08:48:02.993Z,55.82
2019-02-28T08:49:06.222Z,55.82
2019-02-28T08:50:02.973Z,56.01
2019-02-28T08:51:02.951Z,55.27
2019-02-28T08:52:05.747Z,55.46
2019-02-28T08:53:02.919Z,55.65
2019-02-28T08:54:02.910Z,55.27
2019-02-28T08:55:06.740Z,55.08
2019-02-28T08:56:02.878Z,55.08
2019-02-28T08:57:02.875Z,54.70
2019-02-28T08:58:05.974Z,54.25
2019-02-28T08:59:11.363Z,54.25
2019-02-28T09:00:02.820Z,53.86
2019-02-28T09:01:05.365Z,53.86
2019-02-28T09:02:02.792Z,53.32
2019-02-28T09:03:02.798Z,53.03
2019-02-28T09:04:04.989Z,53.03
2019-02-28T09:05:02.756Z,52.75
2019-02-28T09:06:04.193Z,52.55
2019-02-28T09:07:02.737Z,52.65
2019-02-28T09:08:02.718Z,52.84
2019-02-28T09:09:02.700Z,52.36
2019-02-28T09:10:02.689Z,52.36
2019-02-28T09:11:02.680Z,52.20
2019-02-28T09:12:02.671Z,52.87
2019-02-28T09:13:07.781Z,52.10
2019-02-28T09:14:02.635Z,52.10
2019-02-28T09:15:02.623Z,52.10
2019-02-28T09:16:04.928Z,52.10
2019-02-28T09:17:02.598Z,51.75
2019-02-28T09:18:02.586Z,50.98
2019-02-28T09:19:02.581Z,50.79
2019-02-28T09:20:02.562Z,50.98
2019-02-28T09:21:02.545Z,50.98
2019-02-28T09:22:02.533Z,50.50
2019-02-28T09:23:03.249Z,50.05
2019-02-28T09:24:02.528Z,50.31
2019-02-28T09:25:02.493Z,50.02
2019-02-28T09:26:03.487Z,50.15
2019-02-28T09:27:04.101Z,50.15
2019-02-28T09:28:02.455Z,49.76
2019-02-28T09:29:02.443Z,49.48
2019-02-28T09:30:02.425Z,49.57
2019-02-28T09:31:05.103Z,49.19
2019-02-28T09:32:02.407Z,49.38
2019-02-28T09:33:02.392Z,48.80
2019-02-28T09:34:02.377Z,48.61
2019-02-28T09:35:05.480Z,48.54
2019-02-28T09:36:02.348Z,48.54
2019-02-28T09:37:02.345Z,48.54
2019-02-28T09:38:06.290Z,48.83
2019-02-28T09:39:02.322Z,48.16
2019-02-28T09:40:02.302Z,48.16
2019-02-28T09:41:04.502Z,47.87
2019-02-28T09:42:02.296Z,47.39
2019-02-28T09:43:02.265Z,47.20
2019-02-28T09:44:02.257Z,47.49
2019-02-28T09:45:06.410Z,47.39
2019-02-28T09:46:02.228Z,47.89
2019-02-28T09:47:02.218Z,47.80
2019-02-28T09:48:02.405Z,47.61
2019-02-28T09:49:02.193Z,47.22
2019-02-28T09:50:02.184Z,47.51
2019-02-28T09:51:02.168Z,47.51
2019-02-28T09:52:03.261Z,47.06
2019-02-28T09:53:02.163Z,47.06
2019-02-28T09:54:02.135Z,46.96
2019-02-28T09:55:02.129Z,46.96
2019-02-28T09:56:02.110Z,46.67
2019-02-28T09:57:02.099Z,46.58
2019-02-28T09:58:02.085Z,46.00
2019-02-28T09:59:03.124Z,46.19
2019-02-28T10:00:02.060Z,46.39
2019-02-28T10:01:02.060Z,46.00
2019-02-28T10:02:08.089Z,45.81
2019-02-28T10:03:02.030Z,46.19
2019-02-28T10:04:02.021Z,46.10
2019-02-28T10:05:02.939Z,46.22
2019-02-28T10:06:01.992Z,45.93
2019-02-28T10:07:01.984Z,45.64
2019-02-28T10:08:03.067Z,45.64
2019-02-28T10:09:01.969Z,45.54
2019-02-28T10:10:01.956Z,45.74
2019-02-28T10:11:01.940Z,45.28
2019-02-28T10:12:04.625Z,44.90
2019-02-28T10:13:01.912Z,44.61
2019-02-28T10:14:01.920Z,45.00
2019-02-28T10:15:06.976Z,45.09
2019-02-28T10:16:01.889Z,44.70
2019-02-28T10:17:01.870Z,44.90
2019-02-28T10:18:04.430Z,44.63
2019-02-28T10:19:01.849Z,44.44
2019-02-28T10:20:01.838Z,43.48
2019-02-28T10:21:02.653Z,43.67
2019-02-28T10:22:01.810Z,43.57
2019-02-28T10:23:01.801Z,43.87
2019-02-28T10:24:01.803Z,43.29
2019-02-28T10:25:06.134Z,43.77
2019-02-28T10:26:01.832Z,43.77
2019-02-28T10:27:03.466Z,43.96
2019-02-28T10:28:02.751Z,43.96
2019-02-28T10:29:04.501Z,43.48
2019-02-28T10:30:01.728Z,43.19
2019-02-28T10:31:01.714Z,43.60
2019-02-28T10:32:01.715Z,43.50
2019-02-28T10:33:01.701Z,43.70
2019-02-28T10:34:01.683Z,43.50
2019-02-28T10:35:02.336Z,42.93
2019-02-28T10:36:01.678Z,42.85
2019-02-28T10:37:01.653Z,42.66
2019-02-28T10:38:01.649Z,42.76
2019-02-28T10:39:02.783Z,42.10
2019-02-28T10:40:01.621Z,41.72
2019-02-28T10:41:01.670Z,41.05
2019-02-28T10:42:04.968Z,41.16
2019-02-28T10:43:01.604Z,41.16
2019-02-28T10:44:01.604Z,41.16
2019-02-28T10:45:03.671Z,40.88
2019-02-28T10:46:01.574Z,40.30
2019-02-28T10:47:01.564Z,40.11
2019-02-28T10:48:03.880Z,40.58
2019-02-28T10:49:01.540Z,40.49
2019-02-28T10:50:01.534Z,40.11
2019-02-28T10:51:12.688Z,40.08
2019-02-28T10:52:01.524Z,40.18
2019-02-28T10:53:05.429Z,40.37
2019-02-28T10:54:01.494Z,40.56
2019-02-28T10:55:01.483Z,40.85
2019-02-28T10:56:01.482Z,40.66
2019-02-28T10:57:03.029Z,41.14
2019-02-28T10:58:01.462Z,40.68
2019-02-28T10:59:01.454Z,40.39
2019-02-28T11:00:01.442Z,40.49
2019-02-28T11:01:07.670Z,40.01
2019-02-28T11:02:01.415Z,39.72
2019-02-28T11:03:01.449Z,39.62
2019-02-28T11:04:01.416Z,39.45
2019-02-28T11:05:01.416Z,39.06
2019-02-28T11:06:01.383Z,38.78
2019-02-28T11:07:02.240Z,38.49
2019-02-28T11:08:01.363Z,38.01
2019-02-28T11:09:01.352Z,38.59
2019-02-28T11:10:02.001Z,38.78
2019-02-28T11:11:01.337Z,38.29
2019-02-28T11:12:01.339Z,38.49
2019-02-28T11:13:01.334Z,38.49
2019-02-28T11:14:03.906Z,38.39
2019-02-28T11:15:01.296Z,38.37
2019-02-28T11:16:01.312Z,38.47
2019-02-28T11:17:01.293Z,38.45
2019-02-28T11:18:01.286Z,38.64
2019-02-28T11:19:01.286Z,39.39
2019-02-28T11:20:01.258Z,39.39
2019-02-28T11:21:01.252Z,39.58
2019-02-28T11:22:01.583Z,39.97
2019-02-28T11:23:01.229Z,39.87
2019-02-28T11:24:01.228Z,40.14
2019-02-28T11:25:02.145Z,40.14
2019-02-28T11:26:01.197Z,40.43
2019-02-28T11:27:01.194Z,40.33
2019-02-28T11:28:01.180Z,40.06
2019-02-28T11:29:03.132Z,40.45
2019-02-28T11:30:01.157Z,40.08
2019-02-28T11:31:01.147Z,39.79
2019-02-28T11:32:01.140Z,39.43
2019-02-28T11:33:04.535Z,38.76
2019-02-28T11:34:01.136Z,38.28
2019-02-28T11:35:01.141Z,38.54
2019-02-28T11:36:01.097Z,38.64
2019-02-28T11:37:01.133Z,39.41
2019-02-28T11:38:01.083Z,39.29
2019-02-28T11:39:01.074Z,39.49
2019-02-28T11:40:01.060Z,39.66
2019-02-28T11:41:01.054Z,39.76
2019-02-28T11:42:01.041Z,40.43
2019-02-28T11:43:02.897Z,40.50
2019-02-28T11:44:01.023Z,41.08
2019-02-28T11:45:01.013Z,40.79
2019-02-28T11:46:02.981Z,41.06
2019-02-28T11:47:00.990Z,41.73
2019-02-28T11:48:00.973Z,41.73
2019-02-28T11:49:00.967Z,41.93
2019-02-28T11:50:04.691Z,41.73
2019-02-28T11:51:00.945Z,42.21
2019-02-28T11:52:00.941Z,42.02
2019-02-28T11:53:04.878Z,42.00
2019-02-28T11:54:00.932Z,42.10
2019-02-28T11:55:00.918Z,42.19
2019-02-28T11:56:00.908Z,42.10
2019-02-28T11:57:03.016Z,42.19
2019-02-28T11:58:00.870Z,42.10
2019-02-28T11:59:00.851Z,42.29
2019-02-28T12:00:01.563Z,41.71
2019-02-28T12:01:02.225Z,42.19
2019-02-28T12:02:00.821Z,42.10
2019-02-28T12:03:01.057Z,41.90
2019-02-28T12:04:00.795Z,42.19
2019-02-28T12:05:00.782Z,42.10
2019-02-28T12:06:00.773Z,42.00
2019-02-28T12:07:00.975Z,42.00
2019-02-28T12:08:00.747Z,41.90
2019-02-28T12:09:00.730Z,42.55
2019-02-28T12:10:00.735Z,42.38
2019-02-28T12:11:01.920Z,42.77
2019-02-28T12:12:00.698Z,42.77
2019-02-28T12:13:00.709Z,42.86
2019-02-28T12:14:00.673Z,42.57
2019-02-28T12:15:02.741Z,42.96
2019-02-28T12:16:00.650Z,42.96
2019-02-28T12:17:00.665Z,43.07
2019-02-28T12:18:03.903Z,43.07
2019-02-28T12:19:00.636Z,42.81
2019-02-28T12:20:00.647Z,42.35
2019-02-28T12:21:01.733Z,41.89
2019-02-28T12:22:00.589Z,41.72
2019-02-28T12:23:00.571Z,40.97
2019-02-28T12:24:00.672Z,39.91
2019-02-28T12:25:00.559Z,39.45
2019-02-28T12:26:00.535Z,39.09
2019-02-28T12:27:00.539Z,38.60
2019-02-28T12:28:02.717Z,38.12
2019-02-28T12:29:00.554Z,38.43
2019-02-28T12:30:00.499Z,37.87
2019-02-28T12:31:01.128Z,37.68
2019-02-28T12:32:00.482Z,37.21
2019-02-28T12:33:00.502Z,36.83
2019-02-28T12:34:00.477Z,36.75
2019-02-28T12:35:01.729Z,36.55
2019-02-28T12:36:00.449Z,36.29
2019-02-28T12:37:00.435Z,35.90
2019-02-28T12:38:00.433Z,35.42
2019-02-28T12:39:02.334Z,35.34
2019-02-28T12:40:00.643Z,34.64
2019-02-28T12:41:00.413Z,34.55
2019-02-28T12:42:00.470Z,34.64
2019-02-28T12:43:00.402Z,34.66
2019-02-28T12:44:00.387Z,34.66
2019-02-28T12:45:00.383Z,34.47
2019-02-28T12:46:00.848Z,34.47
2019-02-28T12:47:00.389Z,34.18
2019-02-28T12:48:00.364Z,34.28
2019-02-28T12:49:00.354Z,34.18
2019-02-28T12:50:00.341Z,34.08
2019-02-28T12:51:02.253Z,34.08
2019-02-28T12:52:01.200Z,34.18
2019-02-28T12:53:00.342Z,34.45